Time;durP1;ratioP1;P1;durP2;ratioP2;P2;SDS_P1;SDS_P2;PMS_P1;PMS_P2;Temp;Humidity;BMP_temperature;BMP_pressure;BME280_temperature;BME280_humidity;BME280_pressure;Samples;Min_cycle;Max_cycle;Signal;HPM_P1;HPM_P2
2021/10/22 00:01:39;;;;;;;5.10;1.92;;;8.20;59.00;;;;;;4989648;28;20034;-76
2021/10/22 00:04:05;;;;;;;5.90;2.03;;;8.20;59.00;;;;;;4989788;28;20026;-76
2021/10/22 00:06:31;;;;;;;3.88;1.48;;;8.20;59.10;;;;;;4989656;28;20037;-77
2021/10/22 00:08:57;;;;;;;2.83;1.55;;;8.10;59.00;;;;;;4989559;28;20100;-77
2021/10/22 00:11:24;;;;;;;4.60;1.90;;;8.10;59.00;;;;;;4990084;28;20046;-80
2021/10/22 00:13:50;;;;;;;4.15;2.10;;;8.10;59.10;;;;;;4990420;28;20399;-75
2021/10/22 00:16:17;;;;;;;4.00;1.70;;;8.10;59.10;;;;;;4989869;28;20171;-79
2021/10/22 00:18:43;;;;;;;3.55;1.52;;;8.10;59.10;;;;;;4989417;28;20034;-82
2021/10/22 00:21:09;;;;;;;4.32;1.50;;;8.00;59.00;;;;;;4989764;28;20026;-82
2021/10/22 00:23:35;;;;;;;2.83;1.45;;;8.00;59.00;;;;;;4989346;28;20038;-82
2021/10/22 00:26:02;;;;;;;5.07;1.90;;;8.00;59.10;;;;;;4989482;28;20058;-79
2021/10/22 00:28:29;;;;;;;3.22;1.42;;;8.00;59.10;;;;;;5004088;28;20105;-81
2021/10/22 00:30:56;;;;;;;5.30;1.80;;;8.00;59.20;;;;;;4989972;28;20058;-80
2021/10/22 00:33:22;;;;;;;3.85;1.40;;;8.00;59.20;;;;;;4996759;28;20022;-82
2021/10/22 00:35:49;;;;;;;2.92;1.90;;;7.90;59.00;;;;;;5008447;28;20531;-80
2021/10/22 00:38:15;;;;;;;4.82;2.30;;;7.90;59.10;;;;;;5007136;28;20030;-79
2021/10/22 00:40:41;;;;;;;5.85;2.28;;;7.90;59.10;;;;;;4988982;28;20117;-79
2021/10/22 00:43:07;;;;;;;2.83;1.30;;;7.90;59.20;;;;;;4988866;28;20030;-80
2021/10/22 00:45:33;;;;;;;5.75;1.70;;;7.80;59.00;;;;;;5004644;28;20042;-80
2021/10/22 00:47:59;;;;;;;6.03;2.22;;;7.80;59.00;;;;;;4988799;28;20482;-81
2021/10/22 00:50:27;;;;;;;2.92;1.25;;;7.80;59.30;;;;;;4988561;28;20113;-81
2021/10/22 00:52:53;;;;;;;2.40;1.40;;;7.80;59.10;;;;;;4988017;28;20093;-80
2021/10/22 00:55:19;;;;;;;4.80;1.75;;;7.80;59.20;;;;;;4988917;28;20113;-81
2021/10/22 00:57:46;;;;;;;4.07;1.55;;;7.70;59.00;;;;;;4989159;28;20034;-79
2021/10/22 01:00:12;;;;;;;4.20;1.20;;;7.70;59.10;;;;;;4988155;28;20073;-79
2021/10/22 01:02:41;;;;;;;5.43;1.83;;;7.70;59.10;;;;;;4987357;28;20049;-79
2021/10/22 01:05:11;;;;;;;3.17;1.45;;;7.70;59.20;;;;;;4987495;28;20040;-78
2021/10/22 01:07:41;;;;;;;;;;;7.70;59.20;;;;;;4988813;28;20038;-79
2021/10/22 01:10:08;;;;;;;4.28;1.30;;;7.60;59.00;;;;;;4988648;28;20732;-78
2021/10/22 01:12:35;;;;;;;6.63;2.97;;;7.60;58.90;;;;;;4988082;28;20350;-77
2021/10/22 01:15:02;;;;;;;2.80;1.40;;;7.60;59.00;;;;;;4987745;28;20112;-76
2021/10/22 01:17:41;;;;;;;5.47;1.83;;;7.60;59.10;;;;;;4988424;28;20045;-79
2021/10/22 01:20:20;;;;;;;4.97;1.58;;;7.60;59.10;;;;;;4987144;28;20039;-78
2021/10/22 01:22:49;;;;;;;4.20;1.63;;;7.60;59.20;;;;;;4988507;28;20121;-77
2021/10/22 01:25:18;;;;;;;2.72;1.55;;;7.50;59.00;;;;;;4987844;28;20058;-78
2021/10/22 01:27:45;;;;;;;2.95;1.45;;;7.50;59.00;;;;;;5003228;28;20045;-77
2021/10/22 01:30:13;;;;;;;4.63;1.20;;;7.50;59.10;;;;;;4987880;28;20030;-77
2021/10/22 01:32:40;;;;;;;3.28;1.25;;;7.50;59.10;;;;;;4988562;28;20081;-78
2021/10/22 01:35:08;;;;;;;4.70;1.60;;;7.50;59.10;;;;;;4989788;28;20042;-77
2021/10/22 01:37:36;;;;;;;4.53;1.85;;;7.50;59.20;;;;;;4989758;28;20027;-78
2021/10/22 01:40:06;;;;;;;3.75;1.40;;;7.40;59.00;;;;;;4989226;28;20042;-79
2021/10/22 01:42:33;;;;;;;3.97;1.50;;;7.40;59.10;;;;;;4990014;28;20038;-78
2021/10/22 01:44:59;;;;;;;3.70;1.40;;;7.40;59.10;;;;;;4989745;28;20040;-77
2021/10/22 01:47:25;;;;;;;3.80;1.40;;;7.40;59.10;;;;;;4990305;28;20054;-78
2021/10/22 01:49:52;;;;;;;3.05;1.30;;;7.40;59.20;;;;;;5008053;28;20038;-76
2021/10/22 01:52:19;;;;;;;3.80;1.40;;;7.30;59.00;;;;;;5007981;28;20437;-80
2021/10/22 01:54:45;;;;;;;2.92;1.23;;;7.30;59.00;;;;;;4992134;28;20113;-75
2021/10/22 01:57:11;;;;;;;4.68;1.48;;;7.30;59.10;;;;;;4992812;28;20038;-78
2021/10/22 01:59:39;;;;;;;4.13;1.10;;;7.30;59.10;;;;;;4992796;28;20061;-79
2021/10/22 02:02:05;;;;;;;2.95;1.10;;;7.30;59.20;;;;;;4992665;28;20045;-78
2021/10/22 02:04:32;;;;;;;4.15;1.27;;;7.30;59.30;;;;;;4991113;28;20414;-78
2021/10/22 02:06:59;;;;;;;4.45;1.42;;;7.30;59.40;;;;;;4992558;28;20054;-83
2021/10/22 02:09:25;;;;;;;5.15;1.33;;;7.30;59.40;;;;;;4992398;28;20065;-81
2021/10/22 02:11:53;;;;;;;3.15;1.27;;;7.30;59.50;;;;;;5007246;28;20034;-81
2021/10/22 02:14:19;;;;;;;4.70;1.30;;;7.30;59.60;;;;;;4992187;28;20485;-81
2021/10/22 02:16:46;;;;;;;5.45;1.50;;;7.40;59.80;;;;;;4992022;28;20532;-80
2021/10/22 02:19:12;;;;;;;5.22;1.40;;;7.40;59.80;;;;;;4990633;28;20042;-81
2021/10/22 02:21:39;;;;;;;2.70;1.15;;;7.40;59.80;;;;;;4992199;28;20122;-81
2021/10/22 02:24:06;;;;;;;1.83;0.90;;;7.40;59.90;;;;;;4991535;28;20034;-79
2021/10/22 02:26:33;;;;;;;3.67;1.52;;;7.40;59.90;;;;;;4991869;28;20062;-81
2021/10/22 02:28:59;;;;;;;2.88;1.05;;;7.50;60.10;;;;;;4992153;28;20027;-81
2021/10/22 02:31:25;;;;;;;4.18;1.10;;;7.50;60.10;;;;;;4991769;28;20038;-81
2021/10/22 02:33:51;;;;;;;3.72;1.02;;;7.50;60.10;;;;;;4991820;28;20042;-77
2021/10/22 02:36:18;;;;;;;3.90;1.30;;;7.50;60.10;;;;;;4991897;28;20041;-78
2021/10/22 02:38:44;;;;;;;3.55;1.25;;;7.50;60.10;;;;;;4992037;28;20038;-78
2021/10/22 02:41:10;;;;;;;5.30;1.30;;;7.50;60.20;;;;;;4991657;28;20120;-79
2021/10/22 02:43:37;;;;;;;2.72;1.17;;;7.60;60.40;;;;;;4991835;28;20502;-79
2021/10/22 02:46:03;;;;;;;4.55;1.15;;;7.60;60.30;;;;;;4991198;28;20034;-77
2021/10/22 02:48:29;;;;;;;1.83;0.80;;;7.60;60.30;;;;;;5006938;28;20054;-81
2021/10/22 02:50:56;;;;;;;5.22;1.15;;;7.60;60.40;;;;;;4991562;28;20034;-79
2021/10/22 02:53:22;;;;;;;2.13;0.90;;;7.60;60.40;;;;;;4991167;28;20034;-82
2021/10/22 02:55:48;;;;;;;4.07;1.10;;;7.70;60.60;;;;;;4990691;28;20030;-82
2021/10/22 02:58:14;;;;;;;2.15;1.15;;;7.60;60.40;;;;;;4991413;28;20053;-80
2021/10/22 03:00:40;;;;;;;3.80;1.40;;;7.70;60.60;;;;;;4990051;28;20101;-79
2021/10/22 03:03:08;;;;;;;2.55;1.00;;;7.70;60.60;;;;;;4991557;28;20062;-81
2021/10/22 03:05:34;;;;;;;4.47;1.27;;;7.70;60.60;;;;;;4991491;28;20031;-79
2021/10/22 03:08:00;;;;;;;3.85;1.02;;;7.80;60.80;;;;;;4991558;28;20034;-79
2021/10/22 03:10:27;;;;;;;3.65;1.10;;;7.80;60.80;;;;;;4991650;28;20425;-80
2021/10/22 03:12:53;;;;;;;1.92;0.90;;;7.80;60.80;;;;;;5006452;28;20504;-81
2021/10/22 03:15:19;;;;;;;2.38;1.25;;;7.80;60.80;;;;;;4991351;28;20521;-78
2021/10/22 03:17:46;;;;;;;1.48;0.70;;;7.80;60.80;;;;;;4991504;28;20069;-79
2021/10/22 03:20:12;;;;;;;3.75;1.15;;;7.80;60.80;;;;;;4991491;28;20045;-79
2021/10/22 03:22:39;;;;;;;3.50;1.00;;;7.80;60.80;;;;;;4991362;28;20029;-79
2021/10/22 03:25:06;;;;;;;1.50;0.70;;;7.90;61.00;;;;;;4991612;28;20034;-80
2021/10/22 03:27:34;;;;;;;2.78;1.02;;;7.90;61.00;;;;;;4990728;28;20033;-79
2021/10/22 03:30:00;;;;;;;1.88;0.82;;;7.90;61.00;;;;;;4991852;28;20633;-81
2021/10/22 03:32:27;;;;;;;3.10;1.60;;;7.90;61.00;;;;;;4995383;28;20096;-81
2021/10/22 03:34:53;;;;;;;3.67;2.08;;;7.90;61.00;;;;;;4995235;28;20546;-80
2021/10/22 03:37:19;;;;;;;2.72;0.70;;;7.90;61.00;;;;;;4995132;28;20041;-80
2021/10/22 03:39:46;;;;;;;3.20;1.20;;;7.90;60.90;;;;;;5009985;28;20371;-80
2021/10/22 03:42:12;;;;;;;2.75;1.20;;;7.90;60.90;;;;;;4995249;28;20033;-82
2021/10/22 03:44:38;;;;;;;1.80;0.90;;;7.90;61.00;;;;;;4994882;28;20034;-81
2021/10/22 03:47:05;;;;;;;4.65;0.93;;;7.90;61.00;;;;;;4994548;28;20061;-81
2021/10/22 03:49:32;;;;;;;4.80;1.00;;;7.90;61.00;;;;;;5010103;28;20449;-81
2021/10/22 03:51:57;;;;;;;3.08;0.88;;;8.00;61.20;;;;;;4993534;28;20541;-80
2021/10/22 03:54:23;;;;;;;2.47;0.98;;;8.00;61.20;;;;;;4994919;28;20030;-80
2021/10/22 03:56:51;;;;;;;3.63;0.88;;;8.00;61.20;;;;;;4994365;28;20038;-80
2021/10/22 03:59:17;;;;;;;2.85;1.02;;;8.00;61.20;;;;;;4993557;28;20052;-80
2021/10/22 04:01:44;;;;;;;5.18;1.65;;;8.00;61.20;;;;;;4994515;28;20029;-81
2021/10/22 04:04:11;;;;;;;2.10;1.55;;;8.00;61.20;;;;;;4993540;28;20032;-80
2021/10/22 04:06:37;;;;;;;4.45;1.08;;;8.00;61.20;;;;;;5009702;28;20073;-79
2021/10/22 04:09:03;;;;;;;3.35;1.02;;;8.00;61.20;;;;;;4995294;28;20039;-80
2021/10/22 04:11:30;;;;;;;2.90;0.77;;;8.10;61.40;;;;;;4994385;28;20030;-82
2021/10/22 04:13:56;;;;;;;3.15;1.05;;;8.10;61.40;;;;;;4994390;28;20034;-78
2021/10/22 04:16:23;;;;;;;3.75;1.20;;;8.00;61.30;;;;;;4994403;28;20026;-81
2021/10/22 04:18:49;;;;;;;3.25;0.85;;;8.10;61.40;;;;;;4994367;28;20046;-82
2021/10/22 04:21:15;;;;;;;3.80;1.00;;;8.10;61.40;;;;;;4994458;28;20046;-82
2021/10/22 04:23:41;;;;;;;3.75;1.00;;;8.10;61.40;;;;;;4994472;28;20030;-81
2021/10/22 04:26:07;;;;;;;3.30;1.30;;;8.10;61.40;;;;;;4994228;28;20041;-80
2021/10/22 04:28:33;;;;;;;3.90;0.98;;;8.10;61.40;;;;;;4994451;28;20078;-76
2021/10/22 04:30:59;;;;;;;3.53;0.85;;;8.10;61.40;;;;;;4994010;28;20577;-80
2021/10/22 04:33:25;;;;;;;3.35;1.42;;;8.10;61.40;;;;;;4993810;28;20057;-81
2021/10/22 04:35:51;;;;;;;2.35;1.10;;;8.10;61.40;;;;;;4994159;28;20053;-78
2021/10/22 04:41:03;;;;;;;3.72;0.93;;;8.20;61.60;;;;;;4992956;28;20536;-80
2021/10/22 04:43:29;;;;;;;2.95;1.42;;;8.20;61.50;;;;;;4993642;28;20038;-81
2021/10/22 04:45:55;;;;;;;2.40;0.80;;;8.20;61.50;;;;;;4993900;28;20027;-80
2021/10/22 04:48:21;;;;;;;3.35;1.20;;;8.20;61.60;;;;;;4989871;28;20525;-79
2021/10/22 04:50:51;;;;;;;3.10;1.05;;;8.20;61.50;;;;;;4990651;28;20565;-78
2021/10/22 04:53:18;;;;;;;2.80;1.05;;;8.20;61.50;;;;;;4990526;28;20113;-81
2021/10/22 04:55:45;;;;;;;4.82;1.75;;;8.20;61.50;;;;;;4990606;28;20026;-78
2021/10/22 04:58:11;;;;;;;3.40;0.80;;;8.30;61.70;;;;;;4997869;28;20037;-79
2021/10/22 05:00:37;;;;;;;2.47;0.82;;;8.20;61.50;;;;;;5009485;28;20042;-80
2021/10/22 05:03:03;;;;;;;4.25;1.17;;;8.30;61.60;;;;;;5000354;28;20035;-75
2021/10/22 05:05:29;;;;;;;3.35;0.95;;;8.30;61.60;;;;;;4988649;28;20034;-79
2021/10/22 05:07:55;;;;;;;2.90;0.75;;;8.30;61.60;;;;;;4993905;28;20088;-79
2021/10/22 05:10:21;;;;;;;4.30;1.30;;;8.30;61.60;;;;;;5006828;28;20034;-78
2021/10/22 05:12:47;;;;;;;2.88;0.88;;;8.30;61.60;;;;;;5016462;28;20049;-79
2021/10/22 05:15:13;;;;;;;4.18;0.95;;;8.40;61.80;;;;;;4987639;28;20031;-77
2021/10/22 05:17:39;;;;;;;3.28;0.90;;;8.40;61.70;;;;;;4991421;28;20092;-78
2021/10/22 05:20:08;;;;;;;4.15;1.00;;;8.40;61.80;;;;;;5007810;28;20037;-75
2021/10/22 05:22:35;;;;;;;3.70;1.05;;;8.40;61.70;;;;;;4992287;28;20080;-76
2021/10/22 05:25:03;;;;;;;4.03;0.85;;;8.50;61.90;;;;;;4988289;28;20034;-78
2021/10/22 05:27:29;;;;;;;3.20;0.70;;;8.40;61.70;;;;;;4989750;28;20041;-79
2021/10/22 05:29:55;;;;;;;4.57;0.85;;;8.50;61.90;;;;;;5007822;28;20034;-81
2021/10/22 05:32:21;;;;;;;2.83;1.23;;;8.50;61.90;;;;;;5008980;28;20025;-79
2021/10/22 05:34:47;;;;;;;2.47;0.70;;;8.60;62.00;;;;;;5008812;28;20153;-78
2021/10/22 05:37:13;;;;;;;3.50;0.82;;;8.60;62.00;;;;;;5008910;28;20034;-81
2021/10/22 05:39:39;;;;;;;1.95;0.70;;;8.60;62.00;;;;;;5008319;28;20096;-79
2021/10/22 05:42:05;;;;;;;2.40;1.13;;;8.60;61.90;;;;;;5007647;28;20113;-80
2021/10/22 05:44:31;;;;;;;2.70;1.30;;;8.70;62.10;;;;;;5006383;28;20066;-81
2021/10/22 05:46:57;;;;;;;2.35;0.70;;;8.70;62.10;;;;;;4997575;28;20514;-79
2021/10/22 05:49:24;;;;;;;3.70;1.20;;;8.70;62.00;;;;;;4991651;28;20489;-80
2021/10/22 05:51:51;;;;;;;4.68;1.30;;;8.80;62.20;;;;;;4987548;28;20482;-76
2021/10/22 05:54:17;;;;;;;2.88;1.17;;;8.80;62.10;;;;;;5006474;28;20072;-78
2021/10/22 05:56:44;;;;;;;7.28;1.40;;;8.90;62.30;;;;;;5005616;28;20037;-77
2021/10/22 05:59:10;;;;;;;4.05;1.48;;;8.90;62.30;;;;;;5005108;28;20061;-78
2021/10/22 06:01:37;;;;;;;4.65;1.92;;;8.90;62.40;;;;;;5007146;28;20030;-80
2021/10/22 06:04:03;;;;;;;4.88;1.48;;;8.90;62.40;;;;;;5006745;28;20477;-80
2021/10/22 06:06:29;;;;;;;6.15;1.60;;;8.90;62.50;;;;;;4999659;28;20438;-76
2021/10/22 06:08:56;;;;;;;3.58;1.40;;;9.00;62.60;;;;;;4994285;28;20037;-79
2021/10/22 06:11:22;;;;;;;3.67;1.75;;;9.00;62.60;;;;;;4987703;28;20034;-77
2021/10/22 06:13:49;;;;;;;4.50;1.60;;;9.10;62.70;;;;;;5002037;28;20036;-82
2021/10/22 06:16:16;;;;;;;2.70;1.48;;;9.10;62.70;;;;;;5003582;28;20041;-80
2021/10/22 06:18:48;;;;;;;7.50;1.90;;;9.10;62.70;;;;;;5001792;28;20172;-79
2021/10/22 06:21:32;;;;;;;4.77;1.40;;;9.10;62.60;;;;;;4983398;28;20036;-80
2021/10/22 06:24:02;;;;;;;5.20;1.42;;;9.20;62.80;;;;;;5002022;28;20311;-80
2021/10/22 06:26:41;;;;;;;3.22;1.33;;;9.20;62.70;;;;;;5004341;28;20421;-81
2021/10/22 06:29:10;;;;;;;5.05;1.38;;;9.20;62.70;;;;;;5000996;28;20505;-81
2021/10/22 06:31:38;;;;;;;5.20;1.67;;;9.30;62.80;;;;;;5006387;28;20034;-86
2021/10/22 06:34:05;;;;;;;2.50;1.40;;;9.30;62.70;;;;;;4998431;28;20065;-79
2021/10/22 06:36:31;;;;;;;3.00;1.33;;;9.30;62.70;;;;;;4989270;28;20026;-82
2021/10/22 06:38:57;;;;;;;2.72;1.15;;;9.30;62.60;;;;;;4992519;28;20034;-82
2021/10/22 06:41:23;;;;;;;4.28;1.55;;;9.40;62.70;;;;;;4986104;28;20039;-82
2021/10/22 06:43:49;;;;;;;4.53;1.50;;;9.40;62.70;;;;;;4977830;28;20027;-82
2021/10/22 06:46:16;;;;;;;2.05;1.30;;;9.40;62.60;;;;;;4976925;28;20038;-81
2021/10/22 06:48:43;;;;;;;4.22;1.20;;;9.40;62.60;;;;;;4990639;28;20054;-83
2021/10/22 06:51:12;;;;;;;3.33;1.45;;;9.50;62.70;;;;;;5001454;28;20049;-83
2021/10/22 06:53:38;;;;;;;2.65;1.00;;;9.50;62.60;;;;;;4986788;28;20069;-83
2021/10/22 06:56:05;;;;;;;3.13;1.10;;;9.50;62.60;;;;;;4986058;28;20089;-81
2021/10/22 06:58:32;;;;;;;3.03;1.23;;;9.50;62.50;;;;;;4995561;28;20037;-80
2021/10/22 07:00:59;;;;;;;3.88;0.95;;;9.60;62.70;;;;;;4993265;28;20133;-77
2021/10/22 07:03:28;;;;;;;3.30;1.15;;;9.60;62.60;;;;;;4981726;28;20026;-79
2021/10/22 07:08:24;;;;;;;1.60;1.00;;;9.70;62.70;;;;;;4995081;28;20026;-81
2021/10/22 07:10:51;;;;;;;7.10;2.00;;;9.70;62.60;;;;;;4993502;28;20043;-78
2021/10/22 07:13:17;;;;;;;5.40;1.15;;;9.70;62.60;;;;;;4996806;28;20448;-83
2021/10/22 07:15:44;;;;;;;3.17;1.20;;;9.80;62.70;;;;;;5006332;28;20535;-76
2021/10/22 07:18:10;;;;;;;3.47;1.02;;;9.80;62.60;;;;;;4992370;28;20116;-77
2021/10/22 07:20:36;;;;;;;2.33;1.00;;;9.80;62.60;;;;;;5021313;28;20199;-76
2021/10/22 07:23:06;;;;;;;1.48;1.00;;;9.80;62.60;;;;;;5004657;28;20515;-82
2021/10/22 07:25:35;;;;;;;1.95;0.88;;;9.90;62.70;;;;;;5021122;28;20486;-78
2021/10/22 07:28:07;;;;;;;2.25;1.10;;;9.90;62.60;;;;;;5005815;28;20045;-79
2021/10/22 07:30:34;;;;;;;3.65;1.05;;;10.00;62.80;;;;;;5005438;28;20501;-77
2021/10/22 07:33:00;;;;;;;3.15;1.10;;;10.00;62.60;;;;;;4996540;28;20401;-77
2021/10/22 07:35:26;;;;;;;2.55;1.13;;;10.00;62.60;;;;;;4986505;28;20073;-77
2021/10/22 07:37:52;;;;;;;1.73;0.82;;;10.10;62.70;;;;;;4988701;28;20136;-78
2021/10/22 07:40:19;;;;;;;2.08;1.08;;;10.10;62.60;;;;;;5006331;28;20063;-78
2021/10/22 07:42:45;;;;;;;3.63;0.90;;;10.10;62.50;;;;;;5005882;28;20124;-78
2021/10/22 07:45:11;;;;;;;3.65;0.80;;;10.20;62.60;;;;;;5005742;28;20058;-79
2021/10/22 07:47:37;;;;;;;2.05;0.82;;;10.20;62.60;;;;;;4992275;28;20053;-78
2021/10/22 07:50:05;;;;;;;1.90;0.77;;;10.20;62.50;;;;;;5004568;28;20528;-78
2021/10/22 07:52:32;;;;;;;2.15;0.93;;;10.20;62.40;;;;;;5006090;28;20104;-79
2021/10/22 07:54:59;;;;;;;1.52;1.00;;;10.30;62.60;;;;;;5005541;28;20031;-81
2021/10/22 07:57:27;;;;;;;2.38;1.00;;;10.30;62.60;;;;;;4984421;28;20034;-78
2021/10/22 07:59:54;;;;;;;2.50;0.82;;;10.40;62.70;;;;;;5020428;28;20075;-78
2021/10/22 08:02:21;;;;;;;4.43;1.10;;;10.40;62.60;;;;;;5004391;28;20034;-79
2021/10/22 08:04:49;;;;;;;3.42;0.88;;;10.40;62.50;;;;;;5004444;28;20045;-77
2021/10/22 08:07:19;;;;;;;1.55;0.60;;;10.50;62.70;;;;;;4988378;28;20354;-78
2021/10/22 08:09:46;;;;;;;2.75;0.90;;;10.50;62.70;;;;;;5005557;28;20038;-78
2021/10/22 08:12:13;;;;;;;2.28;1.10;;;10.60;62.80;;;;;;5020465;28;20069;-78
2021/10/22 08:14:39;;;;;;;5.20;1.13;;;10.60;62.70;;;;;;5005401;28;20397;-78
2021/10/22 08:17:05;;;;;;;2.15;0.90;;;10.60;62.70;;;;;;4991757;28;20033;-76
2021/10/22 08:19:31;;;;;;;2.10;0.77;;;10.70;62.90;;;;;;4988021;28;20496;-77
2021/10/22 08:24:43;;;;;;;1.80;0.90;;;10.80;63.00;;;;;;4986556;28;20120;-78
2021/10/22 08:27:09;;;;;;;2.78;0.80;;;10.90;63.00;;;;;;4988908;28;20489;-77
2021/10/22 08:29:35;;;;;;;1.48;0.50;;;11.00;63.20;;;;;;5006695;28;20022;-77
2021/10/22 08:32:02;;;;;;;3.28;1.35;;;11.10;63.20;;;;;;5008715;28;20036;-77
2021/10/22 08:34:29;;;;;;;1.48;0.70;;;11.20;63.30;;;;;;5008821;28;20040;-76
2021/10/22 08:36:55;;;;;;;3.05;0.70;;;11.30;63.40;;;;;;5008030;28;20044;-77
2021/10/22 08:39:21;;;;;;;2.63;1.02;;;11.30;63.30;;;;;;5008779;28;20125;-77
2021/10/22 08:41:51;;;;;;;4.30;0.95;;;11.40;63.50;;;;;;5009005;28;20045;-77
2021/10/22 08:44:17;;;;;;;2.90;0.77;;;11.40;63.60;;;;;;4986787;28;20040;-77
2021/10/22 08:46:47;;;;;;;1.25;0.60;;;11.50;63.90;;;;;;4988672;28;20035;-77
2021/10/22 08:49:14;;;;;;;2.65;0.90;;;11.60;64.10;;;;;;5004002;28;20030;-77
2021/10/22 08:51:42;;;;;;;1.73;0.50;;;11.70;64.20;;;;;;5008186;28;20625;-78
2021/10/22 08:54:09;;;;;;;1.80;0.70;;;11.80;64.40;;;;;;4998389;28;20509;-77
2021/10/22 08:56:39;;;;;;;2.53;0.73;;;11.90;64.40;;;;;;4986126;28;20089;-77
2021/10/22 08:59:05;;;;;;;1.75;0.60;;;12.00;64.50;;;;;;4985452;28;20038;-78
2021/10/22 09:01:32;;;;;;;2.45;0.50;;;12.00;64.40;;;;;;4988759;28;20042;-80
2021/10/22 09:03:58;;;;;;;1.85;0.75;;;12.10;64.40;;;;;;5004068;28;20038;-80
2021/10/22 09:06:24;;;;;;;1.75;0.98;;;12.20;64.60;;;;;;4983271;28;20562;-79
2021/10/22 09:08:57;;;;;;;0.93;0.55;;;12.20;64.40;;;;;;5006923;28;20030;-81
2021/10/22 09:11:23;;;;;;;1.48;0.63;;;12.20;64.30;;;;;;5009090;28;20091;-80
2021/10/22 09:14:15;;;;;;;2.58;0.50;;;12.30;64.40;;;;;;4992387;28;20442;-79
2021/10/22 09:16:50;;;;;;;4.70;0.73;;;12.30;64.30;;;;;;4988441;28;20060;-80
2021/10/22 09:19:37;;;;;;;3.50;0.60;;;12.30;64.20;;;;;;5001618;28;20038;-77
2021/10/22 09:22:22;;;;;;;1.63;0.75;;;12.40;64.30;;;;;;5008362;28;20121;-78
2021/10/22 09:25:16;;;;;;;1.42;0.60;;;12.40;64.20;;;;;;4968064;28;20387;-77
2021/10/22 09:27:47;;;;;;;2.15;0.40;;;12.40;64.10;;;;;;4970591;28;20031;-79
2021/10/22 09:30:38;;;;;;;2.30;0.80;;;12.50;64.30;;;;;;5002784;28;20084;-76
2021/10/22 09:33:12;;;;;;;2.28;0.60;;;12.50;64.10;;;;;;4995345;28;20105;-80
2021/10/22 09:35:43;;;;;;;3.28;0.63;;;12.50;64.10;;;;;;4987512;28;20034;-78
2021/10/22 09:38:20;;;;;;;0.90;0.50;;;12.50;64.10;;;;;;4993707;28;20030;-81
2021/10/22 09:41:06;;;;;;;2.85;0.47;;;12.50;64.00;;;;;;5006218;28;20518;-79
2021/10/22 09:43:36;;;;;;;1.50;0.50;;;12.50;64.00;;;;;;5022136;28;20048;-81
2021/10/22 09:46:20;;;;;;;1.23;0.52;;;12.50;64.00;;;;;;5005337;28;20030;-78
2021/10/22 09:48:48;;;;;;;1.35;0.70;;;12.60;64.10;;;;;;4987249;28;20100;-81
2021/10/22 09:51:26;;;;;;;1.25;0.50;;;12.50;64.00;;;;;;4977335;28;20042;-80
2021/10/22 09:53:54;;;;;;;3.78;0.70;;;12.60;64.20;;;;;;4995419;28;20036;-81
2021/10/22 09:56:22;;;;;;;2.25;0.60;;;12.60;64.30;;;;;;5005497;28;20108;-81
2021/10/22 09:59:00;;;;;;;2.10;0.77;;;12.60;64.40;;;;;;5001294;28;20026;-81
2021/10/22 10:01:39;;;;;;;3.58;0.60;;;12.60;64.50;;;;;;4983539;28;20334;-80
2021/10/22 10:04:07;;;;;;;1.30;0.60;;;12.60;64.40;;;;;;5002281;28;20113;-81
2021/10/22 10:06:35;;;;;;;3.33;1.40;;;12.60;64.50;;;;;;5007254;28;20034;-80
2021/10/22 10:09:03;;;;;;;1.05;0.68;;;12.70;64.70;;;;;;5005871;28;20060;-81
2021/10/22 10:11:29;;;;;;;2.88;0.70;;;12.70;64.80;;;;;;5005233;28;20311;-81
2021/10/22 10:13:57;;;;;;;0.95;0.60;;;12.70;64.70;;;;;;4992231;28;20033;-80
2021/10/22 10:16:25;;;;;;;1.45;0.77;;;12.80;64.80;;;;;;4987417;28;20035;-81
2021/10/22 10:19:22;;;;;;;0.85;0.40;;;12.80;64.70;;;;;;4998457;28;20276;-79
2021/10/22 10:21:50;;;;;;;1.60;0.52;;;12.90;64.80;;;;;;5006924;28;20040;-81
2021/10/22 10:24:19;;;;;;;2.85;0.75;;;12.90;64.70;;;;;;5021466;28;20038;-81
2021/10/22 10:27:09;;;;;;;1.23;0.50;;;13.00;64.70;;;;;;5015644;28;20045;-81
2021/10/22 10:29:41;;;;;;;2.65;0.57;;;13.10;64.70;;;;;;5004224;28;20030;-79
2021/10/22 10:32:10;;;;;;;3.20;0.57;;;13.20;64.70;;;;;;4997844;28;20149;-80
2021/10/22 10:34:54;;;;;;;1.20;0.52;;;13.20;64.60;;;;;;4987171;28;20030;-80
2021/10/22 10:37:42;;;;;;;1.38;0.65;;;13.30;64.60;;;;;;4986874;28;20379;-83
2021/10/22 10:40:24;;;;;;;2.35;0.60;;;13.40;64.60;;;;;;4986158;28;20035;-81
2021/10/22 10:42:54;;;;;;;2.00;0.80;;;13.50;64.70;;;;;;4991270;28;20040;-79
2021/10/22 10:45:24;;;;;;;4.00;0.90;;;13.60;64.80;;;;;;5000653;28;20069;-79
2021/10/22 10:48:06;;;;;;;2.78;1.08;;;13.70;64.80;;;;;;4985195;28;20042;-81
2021/10/22 10:50:55;;;;;;;2.38;0.50;;;13.80;64.70;;;;;;5006093;28;20399;-81
2021/10/22 10:53:39;;;;;;;3.38;1.20;;;13.90;64.80;;;;;;5004931;28;20026;-81
2021/10/22 10:56:06;;;;;;;1.20;0.82;;;14.10;65.00;;;;;;5021551;28;20049;-78
2021/10/22 10:58:42;;;;;;;0.63;0.43;;;14.20;65.00;;;;;;5006040;28;20038;-79
2021/10/22 11:01:25;;;;;;;2.40;1.05;;;14.40;65.20;;;;;;5006594;28;20137;-79
2021/10/22 11:03:52;;;;;;;1.55;0.60;;;14.50;65.00;;;;;;4985641;28;20122;-81
2021/10/22 11:06:52;;;;;;;1.92;0.70;;;14.50;64.80;;;;;;4972992;28;20049;-82
2021/10/22 11:09:43;;;;;;;2.03;0.50;;;14.60;64.70;;;;;;4996104;28;20033;-80
2021/10/22 11:12:09;;;;;;;3.13;1.23;;;14.70;64.70;;;;;;4998951;28;20311;-80
2021/10/22 11:14:45;;;;;;;2.33;0.50;;;14.70;64.60;;;;;;5005421;28;20103;-81
2021/10/22 11:17:14;;;;;;;2.28;0.60;;;14.80;64.50;;;;;;5008244;28;20121;-81
2021/10/22 11:19:42;;;;;;;0.98;0.57;;;14.90;64.60;;;;;;5001996;28;20538;-80
2021/10/22 11:22:22;;;;;;;2.22;0.60;;;15.00;64.60;;;;;;5006320;28;20481;-80
2021/10/22 11:24:48;;;;;;;1.10;0.60;;;15.10;64.60;;;;;;4967375;28;20093;-80
2021/10/22 11:27:17;;;;;;;3.10;0.60;;;15.20;64.50;;;;;;4966967;28;20545;-79
2021/10/22 11:29:44;;;;;;;2.78;0.60;;;15.20;64.20;;;;;;5002382;28;20034;-80
2021/10/22 11:32:13;;;;;;;1.27;0.70;;;15.30;64.20;;;;;;5005780;28;20068;-79
2021/10/22 11:34:48;;;;;;;2.05;0.88;;;15.40;64.20;;;;;;4967224;28;20062;-79
2021/10/22 11:37:17;;;;;;;3.20;1.15;;;15.40;63.90;;;;;;4981987;28;20039;-78
2021/10/22 11:39:52;;;;;;;2.05;0.50;;;15.50;63.90;;;;;;5002561;28;20092;-79
2021/10/22 11:42:28;;;;;;;3.67;0.55;;;15.60;63.90;;;;;;5020145;28;20034;-79
2021/10/22 11:45:02;;;;;;;2.17;0.70;;;15.70;63.90;;;;;;4996962;28;20034;-81
2021/10/22 11:47:49;;;;;;;5.68;0.70;;;15.80;63.70;;;;;;4983198;28;20121;-78
2021/10/22 11:50:32;;;;;;;1.95;0.70;;;15.90;63.70;;;;;;4985696;28;20034;-79
2021/10/22 11:53:05;;;;;;;;;;;16.00;63.70;;;;;;4997025;28;20022;-81
2021/10/22 11:55:31;;;;;;;2.63;0.40;;;16.10;63.90;;;;;;5008155;28;19913;-81
2021/10/22 11:58:05;;;;;;;3.63;0.68;;;16.20;63.80;;;;;;5008185;28;20076;-81
2021/10/22 12:00:32;;;;;;;3.92;0.68;;;16.30;63.60;;;;;;5008834;28;20490;-79
2021/10/22 12:02:59;;;;;;;3.28;0.65;;;16.40;63.60;;;;;;5008952;28;20084;-80
2021/10/22 12:05:27;;;;;;;1.05;0.50;;;16.60;63.60;;;;;;5007801;28;20532;-81
2021/10/22 12:07:56;;;;;;;1.77;0.52;;;16.60;63.40;;;;;;5024378;28;20042;-80
2021/10/22 12:10:23;;;;;;;2.10;0.95;;;16.70;63.30;;;;;;5009286;28;20038;-79
2021/10/22 12:12:54;;;;;;;1.65;0.50;;;16.70;63.20;;;;;;5003847;28;20081;-80
2021/10/22 12:15:32;;;;;;;1.63;0.43;;;16.80;63.10;;;;;;4988997;28;20133;-81
2021/10/22 12:18:01;;;;;;;1.10;0.77;;;16.80;62.80;;;;;;4992891;28;20048;-82
2021/10/22 12:20:31;;;;;;;2.28;0.68;;;16.90;62.80;;;;;;5007863;28;20092;-81
2021/10/22 12:22:59;;;;;;;1.85;0.47;;;17.00;62.80;;;;;;5003155;28;20045;-81
2021/10/22 12:25:30;;;;;;;2.83;0.60;;;16.90;62.50;;;;;;4989605;28;20033;-80
2021/10/22 12:28:00;;;;;;;2.10;0.68;;;17.00;62.50;;;;;;4992695;28;20030;-82
2021/10/22 12:30:31;;;;;;;3.53;0.80;;;17.00;62.30;;;;;;5008129;28;20052;-79
2021/10/22 12:33:00;;;;;;;0.90;0.60;;;17.00;62.10;;;;;;5022890;28;20026;-79
2021/10/22 12:35:35;;;;;;;1.85;0.75;;;17.00;62.10;;;;;;5008972;28;20104;-82
2021/10/22 12:38:12;;;;;;;1.23;0.55;;;17.00;61.90;;;;;;5024059;28;20237;-81
2021/10/22 12:40:48;;;;;;;2.50;0.88;;;17.00;62.00;;;;;;5007626;28;20068;-79
2021/10/22 12:43:31;;;;;;;1.80;0.82;;;17.00;61.90;;;;;;5015211;28;20520;-81
2021/10/22 12:46:04;;;;;;;0.65;0.40;;;17.00;61.80;;;;;;4988544;28;20385;-80
2021/10/22 12:48:44;;;;;;;1.73;0.47;;;17.00;61.90;;;;;;4980917;28;20077;-79
2021/10/22 12:51:19;;;;;;;1.25;0.40;;;17.00;61.70;;;;;;4969657;28;20039;-79
2021/10/22 12:54:11;;;;;;;0.82;0.47;;;17.00;61.70;;;;;;4994274;28;20129;-79
2021/10/22 12:56:37;;;;;;;0.47;0.28;;;17.00;61.50;;;;;;5008015;28;20034;-79
2021/10/22 12:59:10;;;;;;;1.30;0.60;;;17.00;61.60;;;;;;5008372;28;20034;-79
2021/10/22 13:01:40;;;;;;;0.85;0.60;;;17.10;61.60;;;;;;5007573;28;20133;-78
2021/10/22 13:04:17;;;;;;;1.10;0.60;;;17.10;61.50;;;;;;5007892;28;20026;-80
2021/10/22 13:07:10;;;;;;;1.67;0.73;;;17.10;61.40;;;;;;5008568;28;20026;-79
2021/10/22 13:09:44;;;;;;;3.13;0.98;;;17.10;61.30;;;;;;4990934;28;20049;-79
2021/10/22 13:20:45;;;;;;;1.30;0.40;;;16.90;61.20;;;;;;5007981;28;20052;-79